• Join FlightAware (Why Join?)
  • Login
  • US Flag 
08:09PM EDT


 

Airport Tracker/Info


-or-


 

Live Flight TrackerFlight Track Log ✈ DAL6048 ✈ 13-Sep-2013 ✈ KLGA - KMHT

Flight Track Log - Related Links

Times and Time Zones

All times are in EDT time to prevent confusion due to time zone crossing. See the DAL6048 flight status page for this flight to view local times or setup timezone preferences in your user account.

Time Position Orientation Groundspeed Altitude Reporting Facility
EDT Latitude Longitude Course Direction KTS MPH feet Rate Location/Type
12:15PM 40.8000 -73.8667 51° Northeast 170 196 1,000  Level New York TRACON
12:17PM 40.8750 -73.7933 36° Northeast 207 238 4,200 1,860 Climbing Boston Center
12:18PM 41.0255 -73.6030 27° Northeast  Level Estimated
12:18PM 40.9319 -73.7422 34° Northeast 226 260 6,200  Level Boston Center
12:19PM 41.1081 -73.5127 37° Northeast  Level Estimated
12:19PM 41.0036 -73.6806 33° Northeast 261 300 8,700  Level Boston Center
12:20PM 41.1907 -73.4221 21° North  Level Estimated
12:20PM 41.0750 -73.6186 33° Northeast 289 333 10,600  Level Boston Center
12:21PM 41.2732 -73.3314 51° Northeast  Level Estimated
12:21PM 41.1547 -73.5619 28° Northeast 309 356 12,000  Level Boston Center
12:22PM 41.2408 -73.5000 28° Northeast 332 382 13,400 1,500 Climbing Boston Center
12:23PM 41.3289 -73.4325 30° Northeast 355 409 15,100 1,500 Climbing Boston Center
12:24PM 41.4172 -73.3619 31° Northeast 360 414 16,400 1,200 Climbing Boston Center
12:25PM 41.5053 -73.2828 34° Northeast 371 427 17,500 1,080 Climbing Boston Center
12:26PM 41.5747 -73.1892 45° Northeast 377 434 18,600 1,020 Climbing Boston Center
12:27PM 41.6669 -73.1208 29° Northeast 382 440 19,600 960 Climbing Boston Center
12:28PM 41.7750 -73.1333 355° North 354 407 20,600 660 Climbing Boston Center
12:29PM 41.8875 -73.1539 352° North 384 442 21,000 180 Climbing Boston Center
12:30PM 42.0125 -73.1750 353° North 412 474 21,000  Level Boston Center
12:31PM 42.1353 -73.1958 353° North 430 495 21,000  Level Boston Center
12:32PM 42.2644 -73.2117 355° North 452 520 21,000 -300 Level Boston Center
12:33PM 42.3919 -73.1261 26° Northeast 438 504 20,500 -1,200 Descending Boston Center
12:34PM 42.4617 -72.9889 55° Northeast 411 473 18,600 -1,800 Descending Boston Center
12:35PM 42.5247 -72.8514 58° Northeast 413 475 17,000 -1,020 Descending Boston Center
12:36PM 42.5856 -72.7250 57° Northeast 413 475 16,600 -660 Descending Boston Center
12:37PM 42.6442 -72.6094 55° Northeast 407 468 15,700 -960 Descending Boston Center
12:38PM 42.7047 -72.4825 57° Northeast 407 468 14,700 -960 Descending Boston Center
12:39PM 42.7650 -72.3581 57° Northeast 401 461 13,800 -1,380 Descending Boston Center
12:40PM 42.8003 -72.2136 72° East 365 420 12,000 -1,740 Descending Boston Center
12:41PM 42.8125 -72.0947 82° East 358 412 10,400 -1,560 Descending Boston Center
12:42PM 42.8164 -71.9731 87° East 317 365 9,000 -1,440 Descending Boston Center
12:43PM 42.8139 -71.8797 92° East 276 318 7,600 -1,620 Descending Boston Center
12:44PM 42.8047 -71.7667 96° East 269 310 5,800 -1,680 Descending Boston Center
12:45PM 42.7897 -71.6792 103° East 269 310 4,300 -1,440 Descending Boston Center
12:46PM 42.7703 -71.5803 105° East 253 291 3,000 -660 Descending Boston Center
12:47PM 42.7572 -71.5069 104° East 229 264 3,000 -60 Level Boston Center
12:48PM 42.7647 -71.4219 83° East 209 241 2,900 -480 Descending Boston Center
12:49PM 42.7997 -71.3733 46° Northeast 209 241 2,100 -600 Descending Boston Center
12:50PM 42.8500 -71.3867 349° North 158 182 1,800 -540 Descending Boston Center
12:51PM 42.8833 -71.4058 337° Northwest 147 169 1,100 -720 Descending Boston Center
12:52PM 42.9211 -71.4281 337° Northwest 136 157 400 -360 Descending Boston Center
12:53PM 42.9483 -71.4472 333° Northwest 136 157 400  Level Boston Center